sensor_id;sensor_type;location;lat;lon;timestamp;P1;durP1;ratioP1;P2;durP2;ratioP2
67372;SDS011;54257;54.496;18.412;2022-09-13T00:01:03;11.70;;;9.20;;
67372;SDS011;54257;54.496;18.412;2022-09-13T00:03:37;12.00;;;9.00;;
67372;SDS011;54257;54.496;18.412;2022-09-13T00:06:08;12.10;;;9.40;;
67372;SDS011;54257;54.496;18.412;2022-09-13T00:08:36;10.70;;;9.50;;
67372;SDS011;54257;54.496;18.412;2022-09-13T00:11:03;14.60;;;9.90;;
67372;SDS011;54257;54.496;18.412;2022-09-13T00:13:31;11.60;;;9.20;;
67372;SDS011;54257;54.496;18.412;2022-09-13T00:15:58;12.10;;;8.70;;
67372;SDS011;54257;54.496;18.412;2022-09-13T00:18:28;10.40;;;8.90;;
67372;SDS011;54257;54.496;18.412;2022-09-13T00:21:07;13.00;;;9.10;;
67372;SDS011;54257;54.496;18.412;2022-09-13T00:23:37;11.80;;;9.30;;
67372;SDS011;54257;54.496;18.412;2022-09-13T00:26:09;13.00;;;9.50;;
67372;SDS011;54257;54.496;18.412;2022-09-13T00:28:38;11.20;;;8.90;;
67372;SDS011;54257;54.496;18.412;2022-09-13T00:31:08;11.20;;;9.80;;
67372;SDS011;54257;54.496;18.412;2022-09-13T00:33:35;16.80;;;10.40;;
67372;SDS011;54257;54.496;18.412;2022-09-13T00:36:06;12.60;;;10.00;;
67372;SDS011;54257;54.496;18.412;2022-09-13T00:38:37;11.50;;;8.80;;
67372;SDS011;54257;54.496;18.412;2022-09-13T00:41:07;10.00;;;8.60;;
67372;SDS011;54257;54.496;18.412;2022-09-13T00:46:36;9.10;;;8.10;;
67372;SDS011;54257;54.496;18.412;2022-09-13T00:51:38;9.70;;;7.50;;
67372;SDS011;54257;54.496;18.412;2022-09-13T00:54:08;10.60;;;8.50;;
67372;SDS011;54257;54.496;18.412;2022-09-13T00:56:38;8.50;;;7.60;;
67372;SDS011;54257;54.496;18.412;2022-09-13T00:59:11;10.60;;;7.50;;
67372;SDS011;54257;54.496;18.412;2022-09-13T01:01:45;9.30;;;7.50;;
67372;SDS011;54257;54.496;18.412;2022-09-13T01:04:15;10.10;;;8.30;;
67372;SDS011;54257;54.496;18.412;2022-09-13T01:06:45;8.70;;;7.30;;
67372;SDS011;54257;54.496;18.412;2022-09-13T01:09:13;10.50;;;7.30;;
67372;SDS011;54257;54.496;18.412;2022-09-13T01:11:55;9.80;;;8.30;;
67372;SDS011;54257;54.496;18.412;2022-09-13T01:14:30;12.90;;;8.40;;
67372;SDS011;54257;54.496;18.412;2022-09-13T01:16:58;9.10;;;8.20;;
67372;SDS011;54257;54.496;18.412;2022-09-13T01:19:26;12.00;;;8.80;;
67372;SDS011;54257;54.496;18.412;2022-09-13T01:27:43;7.50;;;6.70;;
67372;SDS011;54257;54.496;18.412;2022-09-13T01:30:22;7.90;;;7.10;;
67372;SDS011;54257;54.496;18.412;2022-09-13T01:32:59;10.20;;;7.20;;
67372;SDS011;54257;54.496;18.412;2022-09-13T01:38:33;10.10;;;7.50;;
67372;SDS011;54257;54.496;18.412;2022-09-13T01:50:01;9.40;;;6.60;;
67372;SDS011;54257;54.496;18.412;2022-09-13T01:52:44;7.20;;;6.10;;
67372;SDS011;54257;54.496;18.412;2022-09-13T02:04:09;8.10;;;7.20;;
67372;SDS011;54257;54.496;18.412;2022-09-13T02:09:30;10.40;;;7.70;;
67372;SDS011;54257;54.496;18.412;2022-09-13T02:12:03;11.80;;;8.80;;
67372;SDS011;54257;54.496;18.412;2022-09-13T02:14:37;11.10;;;7.90;;
67372;SDS011;54257;54.496;18.412;2022-09-13T02:22:20;11.60;;;9.40;;
67372;SDS011;54257;54.496;18.412;2022-09-13T02:24:54;10.30;;;8.00;;
67372;SDS011;54257;54.496;18.412;2022-09-13T02:27:27;9.00;;;7.90;;
67372;SDS011;54257;54.496;18.412;2022-09-13T02:30:00;8.20;;;7.20;;
67372;SDS011;54257;54.496;18.412;2022-09-13T02:35:05;12.70;;;8.90;;
67372;SDS011;54257;54.496;18.412;2022-09-13T02:37:38;11.90;;;9.50;;
67372;SDS011;54257;54.496;18.412;2022-09-13T02:40:09;12.40;;;9.60;;
67372;SDS011;54257;54.496;18.412;2022-09-13T02:42:43;9.80;;;8.00;;
67372;SDS011;54257;54.496;18.412;2022-09-13T02:45:18;10.50;;;9.00;;
67372;SDS011;54257;54.496;18.412;2022-09-13T02:50:51;11.30;;;8.30;;
67372;SDS011;54257;54.496;18.412;2022-09-13T02:53:43;10.90;;;8.50;;
67372;SDS011;54257;54.496;18.412;2022-09-13T02:56:21;8.00;;;7.20;;
67372;SDS011;54257;54.496;18.412;2022-09-13T03:01:56;12.40;;;7.10;;
67372;SDS011;54257;54.496;18.412;2022-09-13T03:04:37;6.60;;;5.80;;
67372;SDS011;54257;54.496;18.412;2022-09-13T03:07:11;7.20;;;6.20;;
67372;SDS011;54257;54.496;18.412;2022-09-13T03:09:45;35.60;;;8.10;;
67372;SDS011;54257;54.496;18.412;2022-09-13T03:12:35;12.20;;;5.70;;
67372;SDS011;54257;54.496;18.412;2022-09-13T03:31:55;5.80;;;4.90;;
67372;SDS011;54257;54.496;18.412;2022-09-13T03:37:05;7.10;;;5.20;;
67372;SDS011;54257;54.496;18.412;2022-09-13T03:39:44;5.50;;;4.90;;
67372;SDS011;54257;54.496;18.412;2022-09-13T03:42:19;8.90;;;5.40;;
67372;SDS011;54257;54.496;18.412;2022-09-13T03:44:52;6.90;;;6.00;;
67372;SDS011;54257;54.496;18.412;2022-09-13T03:47:22;7.30;;;6.00;;
67372;SDS011;54257;54.496;18.412;2022-09-13T03:49:53;5.50;;;4.90;;
67372;SDS011;54257;54.496;18.412;2022-09-13T03:52:22;8.80;;;6.30;;
67372;SDS011;54257;54.496;18.412;2022-09-13T03:54:50;6.90;;;5.40;;
67372;SDS011;54257;54.496;18.412;2022-09-13T03:57:20;7.30;;;5.50;;
67372;SDS011;54257;54.496;18.412;2022-09-13T03:59:50;6.50;;;4.80;;
67372;SDS011;54257;54.496;18.412;2022-09-13T04:02:19;6.50;;;5.00;;
67372;SDS011;54257;54.496;18.412;2022-09-13T04:04:48;7.20;;;5.60;;
67372;SDS011;54257;54.496;18.412;2022-09-13T04:07:17;7.90;;;5.10;;
67372;SDS011;54257;54.496;18.412;2022-09-13T04:09:46;7.70;;;5.80;;
67372;SDS011;54257;54.496;18.412;2022-09-13T04:12:14;8.10;;;5.30;;
67372;SDS011;54257;54.496;18.412;2022-09-13T04:14:43;6.10;;;5.50;;
67372;SDS011;54257;54.496;18.412;2022-09-13T04:17:10;7.50;;;6.10;;
67372;SDS011;54257;54.496;18.412;2022-09-13T04:19:38;8.70;;;7.50;;
67372;SDS011;54257;54.496;18.412;2022-09-13T04:22:06;8.20;;;6.20;;
67372;SDS011;54257;54.496;18.412;2022-09-13T04:24:33;11.90;;;9.20;;
67372;SDS011;54257;54.496;18.412;2022-09-13T04:27:01;13.00;;;11.30;;
67372;SDS011;54257;54.496;18.412;2022-09-13T04:29:29;13.00;;;11.60;;
67372;SDS011;54257;54.496;18.412;2022-09-13T04:31:58;9.70;;;8.50;;
67372;SDS011;54257;54.496;18.412;2022-09-13T04:34:26;9.20;;;8.10;;
67372;SDS011;54257;54.496;18.412;2022-09-13T04:36:53;11.40;;;8.10;;
67372;SDS011;54257;54.496;18.412;2022-09-13T04:39:21;9.10;;;7.60;;
67372;SDS011;54257;54.496;18.412;2022-09-13T04:41:49;8.40;;;7.00;;
67372;SDS011;54257;54.496;18.412;2022-09-13T04:44:21;7.50;;;6.00;;
67372;SDS011;54257;54.496;18.412;2022-09-13T04:46:50;9.80;;;6.40;;
67372;SDS011;54257;54.496;18.412;2022-09-13T04:49:17;8.50;;;7.50;;
67372;SDS011;54257;54.496;18.412;2022-09-13T04:51:46;10.60;;;7.50;;
67372;SDS011;54257;54.496;18.412;2022-09-13T04:54:13;8.60;;;7.00;;
67372;SDS011;54257;54.496;18.412;2022-09-13T04:56:42;7.50;;;6.70;;
67372;SDS011;54257;54.496;18.412;2022-09-13T04:59:10;11.00;;;8.60;;
67372;SDS011;54257;54.496;18.412;2022-09-13T05:01:38;10.30;;;7.10;;
67372;SDS011;54257;54.496;18.412;2022-09-13T05:04:06;11.40;;;6.80;;
67372;SDS011;54257;54.496;18.412;2022-09-13T05:06:33;7.40;;;6.60;;
67372;SDS011;54257;54.496;18.412;2022-09-13T05:09:01;8.90;;;7.20;;
67372;SDS011;54257;54.496;18.412;2022-09-13T05:11:29;7.50;;;5.40;;
67372;SDS011;54257;54.496;18.412;2022-09-13T05:13:57;6.80;;;5.20;;
67372;SDS011;54257;54.496;18.412;2022-09-13T05:16:29;5.70;;;5.10;;
67372;SDS011;54257;54.496;18.412;2022-09-13T05:18:57;9.10;;;6.40;;
67372;SDS011;54257;54.496;18.412;2022-09-13T05:21:25;9.60;;;5.00;;
67372;SDS011;54257;54.496;18.412;2022-09-13T05:23:53;7.80;;;6.10;;
67372;SDS011;54257;54.496;18.412;2022-09-13T05:26:23;5.50;;;4.70;;
67372;SDS011;54257;54.496;18.412;2022-09-13T05:28:51;7.70;;;5.20;;
67372;SDS011;54257;54.496;18.412;2022-09-13T05:31:20;6.70;;;4.80;;
67372;SDS011;54257;54.496;18.412;2022-09-13T05:33:54;9.40;;;5.40;;
67372;SDS011;54257;54.496;18.412;2022-09-13T05:36:27;4.60;;;4.10;;
67372;SDS011;54257;54.496;18.412;2022-09-13T05:38:54;5.40;;;4.10;;
67372;SDS011;54257;54.496;18.412;2022-09-13T05:41:22;5.00;;;4.50;;
67372;SDS011;54257;54.496;18.412;2022-09-13T05:43:50;15.40;;;4.70;;
67372;SDS011;54257;54.496;18.412;2022-09-13T05:46:17;4.60;;;3.90;;
67372;SDS011;54257;54.496;18.412;2022-09-13T05:48:46;6.70;;;5.00;;
67372;SDS011;54257;54.496;18.412;2022-09-13T05:53:43;5.80;;;3.90;;
67372;SDS011;54257;54.496;18.412;2022-09-13T05:56:13;8.70;;;3.50;;
67372;SDS011;54257;54.496;18.412;2022-09-13T05:58:46;4.90;;;4.20;;
67372;SDS011;54257;54.496;18.412;2022-09-13T06:01:16;5.60;;;4.30;;
67372;SDS011;54257;54.496;18.412;2022-09-13T06:03:48;12.90;;;3.60;;
67372;SDS011;54257;54.496;18.412;2022-09-13T06:06:17;5.70;;;3.40;;
67372;SDS011;54257;54.496;18.412;2022-09-13T06:08:46;6.30;;;2.90;;
67372;SDS011;54257;54.496;18.412;2022-09-13T06:11:15;5.60;;;2.70;;
67372;SDS011;54257;54.496;18.412;2022-09-13T06:13:42;3.10;;;2.80;;
67372;SDS011;54257;54.496;18.412;2022-09-13T06:16:10;3.10;;;2.70;;
67372;SDS011;54257;54.496;18.412;2022-09-13T06:18:39;3.90;;;2.80;;
67372;SDS011;54257;54.496;18.412;2022-09-13T06:21:11;3.70;;;2.40;;
67372;SDS011;54257;54.496;18.412;2022-09-13T06:23:49;3.50;;;2.80;;
67372;SDS011;54257;54.496;18.412;2022-09-13T06:26:19;3.90;;;2.70;;
67372;SDS011;54257;54.496;18.412;2022-09-13T06:28:51;4.60;;;2.80;;
67372;SDS011;54257;54.496;18.412;2022-09-13T06:31:20;5.00;;;2.50;;
67372;SDS011;54257;54.496;18.412;2022-09-13T06:33:53;3.80;;;2.60;;
67372;SDS011;54257;54.496;18.412;2022-09-13T06:36:23;3.80;;;2.60;;
67372;SDS011;54257;54.496;18.412;2022-09-13T06:38:50;7.90;;;3.10;;
67372;SDS011;54257;54.496;18.412;2022-09-13T06:41:19;4.70;;;3.20;;
67372;SDS011;54257;54.496;18.412;2022-09-13T06:43:56;6.20;;;3.20;;
67372;SDS011;54257;54.496;18.412;2022-09-13T06:46:25;5.70;;;2.90;;
67372;SDS011;54257;54.496;18.412;2022-09-13T06:48:57;11.00;;;4.00;;
67372;SDS011;54257;54.496;18.412;2022-09-13T06:51:30;5.10;;;3.70;;
67372;SDS011;54257;54.496;18.412;2022-09-13T06:53:58;4.90;;;3.00;;
67372;SDS011;54257;54.496;18.412;2022-09-13T06:56:27;3.70;;;3.30;;
67372;SDS011;54257;54.496;18.412;2022-09-13T06:58:58;3.80;;;3.20;;
67372;SDS011;54257;54.496;18.412;2022-09-13T07:01:27;5.70;;;3.10;;
67372;SDS011;54257;54.496;18.412;2022-09-13T07:06:37;7.80;;;3.30;;
67372;SDS011;54257;54.496;18.412;2022-09-13T07:09:07;6.20;;;3.30;;
67372;SDS011;54257;54.496;18.412;2022-09-13T07:11:37;3.80;;;3.40;;
67372;SDS011;54257;54.496;18.412;2022-09-13T07:14:06;4.70;;;3.60;;
67372;SDS011;54257;54.496;18.412;2022-09-13T07:16:35;5.30;;;3.40;;
67372;SDS011;54257;54.496;18.412;2022-09-13T07:19:04;4.80;;;3.30;;
67372;SDS011;54257;54.496;18.412;2022-09-13T07:21:33;4.10;;;3.40;;
67372;SDS011;54257;54.496;18.412;2022-09-13T07:24:01;5.30;;;3.60;;
67372;SDS011;54257;54.496;18.412;2022-09-13T07:26:29;5.40;;;2.90;;
67372;SDS011;54257;54.496;18.412;2022-09-13T07:28:58;5.20;;;3.40;;
67372;SDS011;54257;54.496;18.412;2022-09-13T07:31:35;4.00;;;3.40;;
67372;SDS011;54257;54.496;18.412;2022-09-13T07:34:04;5.50;;;3.40;;
67372;SDS011;54257;54.496;18.412;2022-09-13T07:36:34;5.70;;;3.70;;
67372;SDS011;54257;54.496;18.412;2022-09-13T07:39:03;4.50;;;3.50;;
67372;SDS011;54257;54.496;18.412;2022-09-13T07:41:31;5.90;;;3.30;;
67372;SDS011;54257;54.496;18.412;2022-09-13T07:44:00;7.20;;;4.30;;
67372;SDS011;54257;54.496;18.412;2022-09-13T07:46:28;8.00;;;4.00;;
67372;SDS011;54257;54.496;18.412;2022-09-13T07:48:59;4.80;;;3.30;;
67372;SDS011;54257;54.496;18.412;2022-09-13T07:51:28;7.40;;;3.50;;
67372;SDS011;54257;54.496;18.412;2022-09-13T07:53:58;10.80;;;4.60;;
67372;SDS011;54257;54.496;18.412;2022-09-13T07:56:28;4.90;;;3.60;;
67372;SDS011;54257;54.496;18.412;2022-09-13T07:58:57;4.40;;;3.70;;
67372;SDS011;54257;54.496;18.412;2022-09-13T08:03:59;4.10;;;3.60;;
67372;SDS011;54257;54.496;18.412;2022-09-13T08:08:56;4.20;;;3.80;;
67372;SDS011;54257;54.496;18.412;2022-09-13T08:11:24;7.70;;;4.60;;
67372;SDS011;54257;54.496;18.412;2022-09-13T08:13:56;5.20;;;4.30;;
67372;SDS011;54257;54.496;18.412;2022-09-13T08:16:24;5.50;;;4.60;;
67372;SDS011;54257;54.496;18.412;2022-09-13T08:18:54;6.60;;;4.20;;
67372;SDS011;54257;54.496;18.412;2022-09-13T08:21:23;4.90;;;4.40;;
67372;SDS011;54257;54.496;18.412;2022-09-13T08:23:54;4.70;;;3.70;;
67372;SDS011;54257;54.496;18.412;2022-09-13T08:26:26;4.80;;;4.00;;
67372;SDS011;54257;54.496;18.412;2022-09-13T08:28:58;5.10;;;4.20;;
67372;SDS011;54257;54.496;18.412;2022-09-13T08:31:27;4.40;;;3.90;;
67372;SDS011;54257;54.496;18.412;2022-09-13T08:33:54;5.20;;;4.40;;
67372;SDS011;54257;54.496;18.412;2022-09-13T08:36:22;5.60;;;4.00;;
67372;SDS011;54257;54.496;18.412;2022-09-13T08:38:51;5.40;;;4.80;;
67372;SDS011;54257;54.496;18.412;2022-09-13T08:53:03;5.50;;;5.00;;
67372;SDS011;54257;54.496;18.412;2022-09-13T09:01:57;5.90;;;5.40;;
67372;SDS011;54257;54.496;18.412;2022-09-13T09:07:00;5.40;;;4.90;;
67372;SDS011;54257;54.496;18.412;2022-09-13T09:09:43;6.00;;;5.30;;
67372;SDS011;54257;54.496;18.412;2022-09-13T09:12:23;5.60;;;5.00;;
67372;SDS011;54257;54.496;18.412;2022-09-13T09:17:44;7.40;;;5.50;;
67372;SDS011;54257;54.496;18.412;2022-09-13T09:20:18;5.80;;;5.20;;
67372;SDS011;54257;54.496;18.412;2022-09-13T09:22:51;8.90;;;5.60;;
67372;SDS011;54257;54.496;18.412;2022-09-13T09:25:22;6.80;;;6.00;;
67372;SDS011;54257;54.496;18.412;2022-09-13T09:27:52;6.40;;;5.80;;
67372;SDS011;54257;54.496;18.412;2022-09-13T09:30:20;6.40;;;5.80;;
67372;SDS011;54257;54.496;18.412;2022-09-13T09:38:41;7.10;;;5.50;;
67372;SDS011;54257;54.496;18.412;2022-09-13T09:41:11;6.80;;;5.40;;
67372;SDS011;54257;54.496;18.412;2022-09-13T09:43:55;5.80;;;5.30;;
67372;SDS011;54257;54.496;18.412;2022-09-13T09:46:37;6.60;;;5.80;;
67372;SDS011;54257;54.496;18.412;2022-09-13T09:49:13;5.80;;;5.10;;
67372;SDS011;54257;54.496;18.412;2022-09-13T09:52:16;5.90;;;4.90;;
67372;SDS011;54257;54.496;18.412;2022-09-13T09:54:48;6.80;;;6.10;;
67372;SDS011;54257;54.496;18.412;2022-09-13T09:57:16;6.70;;;5.70;;
67372;SDS011;54257;54.496;18.412;2022-09-13T09:59:48;6.40;;;5.60;;
67372;SDS011;54257;54.496;18.412;2022-09-13T10:02:22;7.10;;;6.40;;
67372;SDS011;54257;54.496;18.412;2022-09-13T10:04:53;8.10;;;6.50;;
67372;SDS011;54257;54.496;18.412;2022-09-13T10:07:32;7.00;;;6.40;;
67372;SDS011;54257;54.496;18.412;2022-09-13T10:10:04;7.60;;;6.40;;
67372;SDS011;54257;54.496;18.412;2022-09-13T10:12:34;6.90;;;6.20;;
67372;SDS011;54257;54.496;18.412;2022-09-13T10:15:18;7.00;;;6.40;;
67372;SDS011;54257;54.496;18.412;2022-09-13T10:18:02;6.90;;;6.30;;
67372;SDS011;54257;54.496;18.412;2022-09-13T10:20:33;7.80;;;6.40;;
67372;SDS011;54257;54.496;18.412;2022-09-13T10:25:41;6.90;;;6.20;;
67372;SDS011;54257;54.496;18.412;2022-09-13T10:28:13;8.30;;;5.90;;
67372;SDS011;54257;54.496;18.412;2022-09-13T10:33:36;6.30;;;5.70;;
67372;SDS011;54257;54.496;18.412;2022-09-13T10:36:13;7.10;;;6.20;;
67372;SDS011;54257;54.496;18.412;2022-09-13T10:38:50;8.20;;;6.30;;
67372;SDS011;54257;54.496;18.412;2022-09-13T10:41:29;7.70;;;6.50;;
67372;SDS011;54257;54.496;18.412;2022-09-13T10:43:58;6.70;;;6.10;;
67372;SDS011;54257;54.496;18.412;2022-09-13T10:46:29;7.10;;;6.10;;
67372;SDS011;54257;54.496;18.412;2022-09-13T10:48:58;6.20;;;5.40;;
67372;SDS011;54257;54.496;18.412;2022-09-13T10:56:51;6.20;;;5.50;;
67372;SDS011;54257;54.496;18.412;2022-09-13T11:13:06;8.30;;;6.60;;
67372;SDS011;54257;54.496;18.412;2022-09-13T11:27:20;5.50;;;5.00;;
67372;SDS011;54257;54.496;18.412;2022-09-13T11:43:52;5.50;;;5.00;;
67372;SDS011;54257;54.496;18.412;2022-09-13T11:49:53;56.10;;;8.70;;
67372;SDS011;54257;54.496;18.412;2022-09-13T11:55:22;5.90;;;5.30;;
67372;SDS011;54257;54.496;18.412;2022-09-13T11:57:54;5.80;;;5.30;;
67372;SDS011;54257;54.496;18.412;2022-09-13T12:00:28;6.10;;;5.50;;
67372;SDS011;54257;54.496;18.412;2022-09-13T12:05:41;5.20;;;4.70;;
67372;SDS011;54257;54.496;18.412;2022-09-13T12:10:45;6.70;;;6.10;;
67372;SDS011;54257;54.496;18.412;2022-09-13T12:13:34;6.20;;;5.70;;
67372;SDS011;54257;54.496;18.412;2022-09-13T12:16:09;6.10;;;5.10;;
67372;SDS011;54257;54.496;18.412;2022-09-13T12:18:43;5.50;;;5.00;;
67372;SDS011;54257;54.496;18.412;2022-09-13T12:21:20;6.20;;;5.60;;
67372;SDS011;54257;54.496;18.412;2022-09-13T12:29:36;6.90;;;5.50;;
67372;SDS011;54257;54.496;18.412;2022-09-13T12:32:09;6.70;;;6.00;;
67372;SDS011;54257;54.496;18.412;2022-09-13T12:43:36;5.90;;;5.30;;
67372;SDS011;54257;54.496;18.412;2022-09-13T12:56:53;7.00;;;5.90;;
67372;SDS011;54257;54.496;18.412;2022-09-13T12:59:34;6.30;;;5.40;;
67372;SDS011;54257;54.496;18.412;2022-09-13T13:05:02;7.20;;;5.90;;
67372;SDS011;54257;54.496;18.412;2022-09-13T13:07:33;6.50;;;5.90;;
67372;SDS011;54257;54.496;18.412;2022-09-13T13:10:03;7.30;;;5.70;;
67372;SDS011;54257;54.496;18.412;2022-09-13T13:12:35;6.80;;;6.20;;
67372;SDS011;54257;54.496;18.412;2022-09-13T13:17:52;6.50;;;5.80;;
67372;SDS011;54257;54.496;18.412;2022-09-13T13:20:38;6.90;;;6.30;;
67372;SDS011;54257;54.496;18.412;2022-09-13T13:23:46;7.20;;;6.20;;
67372;SDS011;54257;54.496;18.412;2022-09-13T13:42:00;6.10;;;5.50;;
67372;SDS011;54257;54.496;18.412;2022-09-13T13:52:40;6.50;;;5.90;;
67372;SDS011;54257;54.496;18.412;2022-09-13T13:56:03;6.90;;;6.10;;
67372;SDS011;54257;54.496;18.412;2022-09-13T14:00:53;6.00;;;5.40;;
67372;SDS011;54257;54.496;18.412;2022-09-13T14:11:54;9.20;;;6.80;;
67372;SDS011;54257;54.496;18.412;2022-09-13T14:14:55;8.50;;;6.40;;
67372;SDS011;54257;54.496;18.412;2022-09-13T14:20:18;9.60;;;7.30;;
67372;SDS011;54257;54.496;18.412;2022-09-13T14:22:46;6.60;;;6.00;;
67372;SDS011;54257;54.496;18.412;2022-09-13T14:27:45;8.20;;;6.50;;
67372;SDS011;54257;54.496;18.412;2022-09-13T14:32:52;8.40;;;6.50;;
67372;SDS011;54257;54.496;18.412;2022-09-13T14:35:35;7.40;;;6.70;;
67372;SDS011;54257;54.496;18.412;2022-09-13T14:38:18;8.40;;;7.60;;
67372;SDS011;54257;54.496;18.412;2022-09-13T14:40:59;8.30;;;7.50;;
67372;SDS011;54257;54.496;18.412;2022-09-13T14:43:29;7.70;;;7.00;;
67372;SDS011;54257;54.496;18.412;2022-09-13T14:48:31;9.30;;;8.40;;
67372;SDS011;54257;54.496;18.412;2022-09-13T14:51:01;9.20;;;8.30;;
67372;SDS011;54257;54.496;18.412;2022-09-13T14:53:34;8.50;;;7.60;;
67372;SDS011;54257;54.496;18.412;2022-09-13T14:56:03;9.40;;;8.30;;
67372;SDS011;54257;54.496;18.412;2022-09-13T14:58:36;9.00;;;7.90;;
67372;SDS011;54257;54.496;18.412;2022-09-13T15:01:07;8.50;;;7.60;;
67372;SDS011;54257;54.496;18.412;2022-09-13T15:03:42;10.40;;;9.10;;
67372;SDS011;54257;54.496;18.412;2022-09-13T15:06:30;11.00;;;9.20;;
67372;SDS011;54257;54.496;18.412;2022-09-13T15:09:13;10.00;;;8.90;;
67372;SDS011;54257;54.496;18.412;2022-09-13T15:14:20;8.90;;;7.50;;
67372;SDS011;54257;54.496;18.412;2022-09-13T15:17:10;8.90;;;8.10;;
67372;SDS011;54257;54.496;18.412;2022-09-13T15:19:41;9.40;;;8.40;;
67372;SDS011;54257;54.496;18.412;2022-09-13T15:22:21;9.30;;;8.40;;
67372;SDS011;54257;54.496;18.412;2022-09-13T15:24:52;10.80;;;9.80;;
67372;SDS011;54257;54.496;18.412;2022-09-13T15:27:28;11.90;;;10.70;;
67372;SDS011;54257;54.496;18.412;2022-09-13T15:29:59;12.80;;;10.70;;
67372;SDS011;54257;54.496;18.412;2022-09-13T15:32:41;12.00;;;10.60;;
67372;SDS011;54257;54.496;18.412;2022-09-13T15:35:29;11.40;;;10.20;;
67372;SDS011;54257;54.496;18.412;2022-09-13T15:38:06;11.40;;;10.30;;
67372;SDS011;54257;54.496;18.412;2022-09-13T15:43:27;11.60;;;10.50;;
67372;SDS011;54257;54.496;18.412;2022-09-13T15:45:55;11.50;;;10.30;;
67372;SDS011;54257;54.496;18.412;2022-09-13T15:48:28;11.60;;;10.50;;
67372;SDS011;54257;54.496;18.412;2022-09-13T15:51:07;12.00;;;10.10;;
67372;SDS011;54257;54.496;18.412;2022-09-13T15:53:35;11.30;;;9.90;;
67372;SDS011;54257;54.496;18.412;2022-09-13T15:56:04;11.30;;;10.20;;
67372;SDS011;54257;54.496;18.412;2022-09-13T15:58:34;11.40;;;9.60;;
67372;SDS011;54257;54.496;18.412;2022-09-13T16:01:02;11.40;;;10.10;;
67372;SDS011;54257;54.496;18.412;2022-09-13T16:03:31;12.70;;;11.40;;
67372;SDS011;54257;54.496;18.412;2022-09-13T16:05:58;11.40;;;10.30;;
67372;SDS011;54257;54.496;18.412;2022-09-13T16:08:26;13.30;;;11.40;;
67372;SDS011;54257;54.496;18.412;2022-09-13T16:10:53;10.80;;;9.90;;
67372;SDS011;54257;54.496;18.412;2022-09-13T16:13:20;11.20;;;9.80;;
67372;SDS011;54257;54.496;18.412;2022-09-13T16:15:46;10.20;;;8.90;;
67372;SDS011;54257;54.496;18.412;2022-09-13T16:18:16;9.90;;;8.80;;
67372;SDS011;54257;54.496;18.412;2022-09-13T16:20:43;10.40;;;9.40;;
67372;SDS011;54257;54.496;18.412;2022-09-13T16:23:13;9.40;;;8.60;;
67372;SDS011;54257;54.496;18.412;2022-09-13T16:25:40;10.20;;;7.90;;
67372;SDS011;54257;54.496;18.412;2022-09-13T16:28:08;7.50;;;6.80;;
67372;SDS011;54257;54.496;18.412;2022-09-13T16:30:43;7.40;;;6.70;;
67372;SDS011;54257;54.496;18.412;2022-09-13T16:33:10;9.10;;;7.40;;
67372;SDS011;54257;54.496;18.412;2022-09-13T16:35:38;7.80;;;7.00;;
67372;SDS011;54257;54.496;18.412;2022-09-13T16:38:06;7.00;;;6.10;;
67372;SDS011;54257;54.496;18.412;2022-09-13T16:40:39;7.30;;;6.60;;
67372;SDS011;54257;54.496;18.412;2022-09-13T16:43:08;7.00;;;6.30;;
67372;SDS011;54257;54.496;18.412;2022-09-13T16:45:39;6.70;;;6.10;;
67372;SDS011;54257;54.496;18.412;2022-09-13T16:48:07;8.70;;;6.70;;
67372;SDS011;54257;54.496;18.412;2022-09-13T16:50:37;7.10;;;6.00;;
67372;SDS011;54257;54.496;18.412;2022-09-13T16:53:06;6.60;;;5.60;;
67372;SDS011;54257;54.496;18.412;2022-09-13T16:55:33;8.20;;;6.20;;
67372;SDS011;54257;54.496;18.412;2022-09-13T16:58:01;6.50;;;5.70;;
67372;SDS011;54257;54.496;18.412;2022-09-13T17:00:29;6.80;;;5.90;;
67372;SDS011;54257;54.496;18.412;2022-09-13T17:02:56;6.60;;;5.90;;
67372;SDS011;54257;54.496;18.412;2022-09-13T17:05:24;7.00;;;6.00;;
67372;SDS011;54257;54.496;18.412;2022-09-13T17:07:51;6.50;;;5.80;;
67372;SDS011;54257;54.496;18.412;2022-09-13T17:10:19;6.80;;;5.50;;
67372;SDS011;54257;54.496;18.412;2022-09-13T17:12:47;6.50;;;5.50;;
67372;SDS011;54257;54.496;18.412;2022-09-13T17:15:15;6.60;;;5.90;;
67372;SDS011;54257;54.496;18.412;2022-09-13T17:17:45;6.90;;;6.20;;
67372;SDS011;54257;54.496;18.412;2022-09-13T17:20:13;6.50;;;5.90;;
67372;SDS011;54257;54.496;18.412;2022-09-13T17:22:40;5.80;;;5.30;;
67372;SDS011;54257;54.496;18.412;2022-09-13T17:25:09;6.60;;;5.90;;
67372;SDS011;54257;54.496;18.412;2022-09-13T17:27:36;7.80;;;6.10;;
67372;SDS011;54257;54.496;18.412;2022-09-13T17:30:07;7.50;;;6.80;;
67372;SDS011;54257;54.496;18.412;2022-09-13T17:32:36;9.30;;;7.30;;
67372;SDS011;54257;54.496;18.412;2022-09-13T17:35:04;8.30;;;6.40;;
67372;SDS011;54257;54.496;18.412;2022-09-13T17:37:32;8.30;;;7.10;;
67372;SDS011;54257;54.496;18.412;2022-09-13T17:40:00;8.00;;;7.20;;
67372;SDS011;54257;54.496;18.412;2022-09-13T17:42:27;8.30;;;7.00;;
67372;SDS011;54257;54.496;18.412;2022-09-13T17:44:55;9.70;;;7.70;;
67372;SDS011;54257;54.496;18.412;2022-09-13T17:47:25;9.00;;;7.90;;
67372;SDS011;54257;54.496;18.412;2022-09-13T17:49:52;11.20;;;7.80;;
67372;SDS011;54257;54.496;18.412;2022-09-13T17:52:24;9.00;;;7.60;;
67372;SDS011;54257;54.496;18.412;2022-09-13T17:54:56;9.70;;;8.00;;
67372;SDS011;54257;54.496;18.412;2022-09-13T17:57:23;9.00;;;7.30;;
67372;SDS011;54257;54.496;18.412;2022-09-13T17:59:50;11.30;;;8.20;;
67372;SDS011;54257;54.496;18.412;2022-09-13T18:02:21;10.10;;;9.10;;
67372;SDS011;54257;54.496;18.412;2022-09-13T18:04:52;10.10;;;9.10;;
67372;SDS011;54257;54.496;18.412;2022-09-13T18:07:26;12.80;;;10.80;;
67372;SDS011;54257;54.496;18.412;2022-09-13T18:09:53;12.30;;;10.90;;
67372;SDS011;54257;54.496;18.412;2022-09-13T18:12:21;14.80;;;10.90;;
67372;SDS011;54257;54.496;18.412;2022-09-13T18:14:52;12.10;;;10.90;;
67372;SDS011;54257;54.496;18.412;2022-09-13T18:17:23;13.00;;;10.40;;
67372;SDS011;54257;54.496;18.412;2022-09-13T18:19:53;9.70;;;8.70;;
67372;SDS011;54257;54.496;18.412;2022-09-13T18:22:21;11.50;;;10.40;;
67372;SDS011;54257;54.496;18.412;2022-09-13T18:24:50;12.90;;;10.10;;
67372;SDS011;54257;54.496;18.412;2022-09-13T18:27:17;10.90;;;9.00;;
67372;SDS011;54257;54.496;18.412;2022-09-13T18:29:45;11.80;;;9.10;;
67372;SDS011;54257;54.496;18.412;2022-09-13T18:32:12;10.50;;;9.20;;
67372;SDS011;54257;54.496;18.412;2022-09-13T18:34:43;12.40;;;9.50;;
67372;SDS011;54257;54.496;18.412;2022-09-13T18:37:12;12.20;;;8.60;;
67372;SDS011;54257;54.496;18.412;2022-09-13T18:39:42;10.40;;;8.50;;
67372;SDS011;54257;54.496;18.412;2022-09-13T18:42:09;10.50;;;8.40;;
67372;SDS011;54257;54.496;18.412;2022-09-13T18:44:36;10.90;;;8.70;;
67372;SDS011;54257;54.496;18.412;2022-09-13T18:47:06;11.00;;;7.90;;
67372;SDS011;54257;54.496;18.412;2022-09-13T18:49:34;13.70;;;9.30;;
67372;SDS011;54257;54.496;18.412;2022-09-13T18:52:01;11.20;;;7.90;;
67372;SDS011;54257;54.496;18.412;2022-09-13T18:54:28;9.40;;;7.40;;
67372;SDS011;54257;54.496;18.412;2022-09-13T18:56:55;7.90;;;7.00;;
67372;SDS011;54257;54.496;18.412;2022-09-13T18:59:23;9.10;;;6.40;;
67372;SDS011;54257;54.496;18.412;2022-09-13T19:01:50;9.60;;;7.80;;
67372;SDS011;54257;54.496;18.412;2022-09-13T19:04:19;9.50;;;7.20;;
67372;SDS011;54257;54.496;18.412;2022-09-13T19:06:48;8.60;;;7.10;;